Huron, CA

4:30 AM PDT on July 31, 2014 (GMT -0700)
Lemoore Naval Air Station (KNLC) Elev 233 ft | 36.33 °N, 119.95 °W | Change Station

Current weather conditions updated 34 minutes ago

Clear
Clear
76 °F
Feels Like 76 °F
N
4
Wind Variable Wind from WNW

Today is forecast to be Warmer than yesterday.

Today
High -- | Low -- °F
--% Chance of Precip.
Yesterday
High -- | Low -- °F
Precip. -- in
6:06 AM 8:06 PM
Waxing Crescent, 18% visible
Pressure 29.88 in
Visibility 9.0 miles
Clouds Clear
Dew Point 51 °F
Humidity 42%
Rainfall 0.00 in
Snow Depth Not available.
UV 0 out of 12
Pollen 6.60 out of 12
Air Quality Not available.
Flu Activity Not available.
METAR KNLC 311056Z AUTO 30003KT 9SM CLR 24/11 A2988 RMK AO2 SLP117 T02440106 $

More Conditions Fewer Conditions

Pressure 29.88 in
Visibility 9.0 miles
Clouds Clear
Dew Point 51 °F
Humidity 42%
Rainfall 0.00 in
Snow Depth Not available.
UV 0 out of 12
Pollen 6.60 out of 12
Air Quality Not available.
Flu Activity Not available.
METAR KNLC 311056Z AUTO 30003KT 9SM CLR 24/11 A2988 RMK AO2 SLP117 T02440106 $

More Conditions Fewer Conditions

10-Day Weather Forecast

Almanac

Astronomy

Jul. 31, 2014 Rise Set
Actual Time 6:06 AM PDT 8:06 PM PDT
Civil Twilight 5:38 AM PDT 8:34 PM PDT
Nautical Twilight 5:03 AM PDT 9:09 PM PDT
Astronomical Twilight 4:26 AM PDT 9:46 PM PDT
Moon 10:29 AM PDT 10:32 PM PDT
Length of Visible Light 14h 56m
Length of Day
13h 59m
Tomorrow will be 1m 41s shorter.
Waxing Crescent, 18% of the Moon is Illuminated
Today
Waxing Crescent
Aug 3
First Quarter
Aug 10
Full
Aug 17
Last Quarter
Aug 25
New

Today's Extremes

State Highs State Lows

Community

WunderPhotos

Upload Photos

1,739,296 photos uploaded!

WunderBlogs® & News

Nearby

Snow Depth

Station Depth Elevation
Leavitt Lake 1 in 9400 ft
Sonora Pass 0 in 8800 ft
Monitor Pass 0 in 8350 ft
Echo Peak 1 in 7800 ft
Fallen Leaf 0 in 6300 ft

Earthquake Activity

City Distance Mag. Time & Date
Mammoth Lakes, California 117 miles 2.8 1:54 AM PDT
2014-07-26
San Simeon, California 78 miles 2.7 10:35 AM PDT
2014-07-25
Huron, California 6 miles 2.7 6:52 AM PDT
2014-07-25
San Simeon, California 65 miles 3.0 8:44 AM PDT
2014-07-24
Minimum magnitude displayed is 2.5.

Coastal Water Temperatures

Place Temperature
No Stations Reporting

Nearby Weather Stations

Station Location Temp. Heat Index Dew Point Humidity Wind Precip. Elev Updated Type
Coalinga, CA 74.1 °F 77 °F 51 °F 44% West  at  0.0 mph 0.00 in / hr 682 ft 4:30 AM PDT Rapid Fire
MAP CEDARCYN (P298) CA , Avenal, CA 81 °F 80 °F 46 °F 29% NNW  at  4 mph 0.00 in / hr 164 ft 3:00 AM PDT MADIS

Show More Stations Show Fewer Stations